createdAt,value
2023-11-13T00:00:14.946Z,21.79
2023-11-13T00:02:16.577Z,21.77
2023-11-13T00:04:18.108Z,21.71
2023-11-13T00:06:19.529Z,21.65
2023-11-13T00:08:21.643Z,21.59
2023-11-13T00:10:23.016Z,21.55
2023-11-13T00:12:24.448Z,21.52
2023-11-13T00:14:25.861Z,21.48
2023-11-13T00:16:27.283Z,21.47
2023-11-13T00:18:28.685Z,21.43
2023-11-13T00:20:30.878Z,21.41
2023-11-13T00:22:32.206Z,21.40
2023-11-13T00:24:33.595Z,21.39
2023-11-13T00:26:34.938Z,21.38
2023-11-13T00:28:36.290Z,21.38
2023-11-13T00:30:38.184Z,21.39
2023-11-13T00:32:39.677Z,21.43
2023-11-13T00:34:41.278Z,21.50
2023-11-13T00:36:42.987Z,21.55
2023-11-13T00:38:44.492Z,21.62
2023-11-13T00:40:45.942Z,21.67
2023-11-13T00:42:47.309Z,21.75
2023-11-13T00:44:48.713Z,21.84
2023-11-13T00:46:50.803Z,21.94
2023-11-13T00:48:52.301Z,22.05
2023-11-13T00:50:53.647Z,22.10
2023-11-13T00:52:54.987Z,22.16
2023-11-13T00:54:57.820Z,22.20
2023-11-13T00:57:00.132Z,22.20
2023-11-13T00:59:01.556Z,22.22
2023-11-13T01:01:03.046Z,22.23
2023-11-13T01:03:05.549Z,22.21
2023-11-13T01:05:06.985Z,22.17
2023-11-13T01:07:08.451Z,22.17
2023-11-13T01:09:12.882Z,22.18
2023-11-13T01:11:14.331Z,22.13
2023-11-13T01:13:15.744Z,22.07
2023-11-13T01:15:17.165Z,22.02
2023-11-13T01:17:18.553Z,21.97
2023-11-13T01:19:19.924Z,21.10
2023-11-13T01:21:21.433Z,21.91
2023-11-13T01:23:22.829Z,21.85
2023-11-13T01:25:24.258Z,21.79
2023-11-13T01:27:25.689Z,21.76
2023-11-13T01:29:27.032Z,21.74
2023-11-13T01:31:28.444Z,20.65
2023-11-13T01:33:29.820Z,21.65
2023-11-13T01:35:31.231Z,21.64
2023-11-13T01:37:32.671Z,21.63
2023-11-13T01:39:34.023Z,21.57
2023-11-13T01:41:35.647Z,21.52
2023-11-13T01:43:36.976Z,21.48
2023-11-13T01:45:38.333Z,21.44
2023-11-13T01:47:39.828Z,21.40
2023-11-13T01:49:41.257Z,21.37
2023-11-13T01:51:42.628Z,21.37
2023-11-13T01:53:43.949Z,21.37
2023-11-13T01:55:45.501Z,21.37
2023-11-13T01:57:46.979Z,21.35
2023-11-13T01:59:48.390Z,21.32
2023-11-13T02:01:49.825Z,21.35
2023-11-13T02:03:51.295Z,21.35
2023-11-13T02:05:53.146Z,21.40
2023-11-13T02:07:54.486Z,21.42
2023-11-13T02:09:56.091Z,21.51
2023-11-13T02:11:57.458Z,21.58
2023-11-13T02:13:58.817Z,21.64
2023-11-13T02:16:00.232Z,21.73
2023-11-13T02:18:01.732Z,21.79
2023-11-13T02:20:03.846Z,21.87
2023-11-13T02:22:05.648Z,21.93
2023-11-13T02:24:07.045Z,22.01
2023-11-13T02:26:08.415Z,22.07
2023-11-13T02:28:10.828Z,22.10
2023-11-13T02:30:12.186Z,22.14
2023-11-13T02:32:13.594Z,22.17
2023-11-13T02:34:14.945Z,22.17
2023-11-13T02:36:16.392Z,22.15
2023-11-13T02:38:17.763Z,22.12
2023-11-13T02:40:19.106Z,22.17
2023-11-13T02:42:20.537Z,22.15
2023-11-13T02:44:21.882Z,22.11
2023-11-13T02:46:24.400Z,22.06
2023-11-13T02:48:25.747Z,22.02
2023-11-13T02:50:27.109Z,21.94
2023-11-13T02:52:28.613Z,21.90
2023-11-13T02:54:30.001Z,21.86
2023-11-13T02:56:31.541Z,21.80
2023-11-13T02:58:32.930Z,21.76
2023-11-13T03:00:34.705Z,21.70
2023-11-13T03:02:36.233Z,21.65
2023-11-13T03:04:37.592Z,21.61
2023-11-13T03:06:38.965Z,21.62
2023-11-13T03:08:42.384Z,21.61
2023-11-13T03:10:43.798Z,21.60
2023-11-13T03:12:45.163Z,21.61
2023-11-13T03:14:46.512Z,21.59
2023-11-13T03:16:47.854Z,21.53
2023-11-13T03:18:49.261Z,21.50
2023-11-13T03:20:50.654Z,21.50
2023-11-13T03:22:51.997Z,21.49
2023-11-13T03:24:53.363Z,21.48
2023-11-13T03:26:54.745Z,21.42
2023-11-13T03:28:56.166Z,21.37
2023-11-13T03:30:57.641Z,21.34
2023-11-13T03:32:59.218Z,21.30
2023-11-13T03:35:00.592Z,21.25
2023-11-13T03:37:01.942Z,21.22
2023-11-13T03:39:03.453Z,21.20
2023-11-13T03:41:04.773Z,21.30
2023-11-13T03:43:06.105Z,21.40
2023-11-13T03:45:07.732Z,21.31
2023-11-13T03:47:09.655Z,21.28
2023-11-13T03:49:11.104Z,21.29
2023-11-13T03:51:12.468Z,21.39
2023-11-13T03:53:13.806Z,21.45
2023-11-13T03:55:15.163Z,21.59
2023-11-13T03:57:16.499Z,21.74
2023-11-13T03:59:18.209Z,21.77
2023-11-13T04:01:20.439Z,21.79
2023-11-13T04:03:21.880Z,21.89
2023-11-13T04:05:23.278Z,21.94
2023-11-13T04:07:25.415Z,21.93
2023-11-13T04:09:26.977Z,21.92
2023-11-13T04:11:28.332Z,21.93
2023-11-13T04:13:29.698Z,21.92
2023-11-13T04:15:31.128Z,21.92
2023-11-13T04:17:32.474Z,21.90
2023-11-13T04:19:33.902Z,21.86
2023-11-13T04:21:35.317Z,21.79
2023-11-13T04:23:36.659Z,21.74
2023-11-13T04:25:38.021Z,21.70
2023-11-13T04:27:39.357Z,21.64
2023-11-13T04:29:40.727Z,21.58
2023-11-13T04:31:42.054Z,21.49
2023-11-13T04:33:43.484Z,21.44
2023-11-13T04:35:44.867Z,21.39
2023-11-13T04:37:46.194Z,21.34
2023-11-13T04:39:47.579Z,21.30
2023-11-13T04:41:48.932Z,21.23
2023-11-13T04:43:50.799Z,21.19
2023-11-13T04:45:52.704Z,21.15
2023-11-13T04:47:55.277Z,21.10
2023-11-13T04:49:56.668Z,21.05
2023-11-13T04:51:58.076Z,21.01
2023-11-13T04:53:59.426Z,20.96
2023-11-13T04:56:00.790Z,20.91
2023-11-13T04:58:03.456Z,20.87
2023-11-13T05:00:06.273Z,20.84
2023-11-13T05:02:08.819Z,20.81
2023-11-13T05:04:10.351Z,20.79
2023-11-13T05:06:11.765Z,20.78
2023-11-13T05:08:13.082Z,20.79
2023-11-13T05:10:14.517Z,20.82
2023-11-13T05:12:16.946Z,20.87
2023-11-13T05:14:18.618Z,20.93
2023-11-13T05:16:20.408Z,21.01
2023-11-13T05:18:21.819Z,21.09
2023-11-13T05:20:23.193Z,21.16
2023-11-13T05:22:24.569Z,21.25
2023-11-13T05:24:26.532Z,21.34
2023-11-13T05:26:28.042Z,21.40
2023-11-13T05:28:29.456Z,21.46
2023-11-13T05:30:30.804Z,21.53
2023-11-13T05:32:32.161Z,21.55
2023-11-13T05:34:33.537Z,21.60
2023-11-13T05:36:34.893Z,21.63
2023-11-13T05:38:36.257Z,21.66
2023-11-13T05:40:37.619Z,21.68
2023-11-13T05:42:39.646Z,21.69
2023-11-13T05:44:41.889Z,21.70
2023-11-13T05:46:43.392Z,21.68
2023-11-13T05:48:44.884Z,20.73
2023-11-13T05:50:46.255Z,21.65
2023-11-13T05:52:47.585Z,21.63
2023-11-13T05:54:48.929Z,21.61
2023-11-13T05:56:50.300Z,21.55
2023-11-13T05:58:51.694Z,21.50
2023-11-13T06:00:53.131Z,21.45
2023-11-13T06:02:54.521Z,21.39
2023-11-13T06:04:55.898Z,21.35
2023-11-13T06:06:58.226Z,21.31
2023-11-13T06:08:59.635Z,21.26
2023-11-13T06:11:00.954Z,21.20
2023-11-13T06:13:03.538Z,21.16
2023-11-13T06:15:05.101Z,21.11
2023-11-13T06:17:06.560Z,21.07
2023-11-13T06:19:08.844Z,21.01
2023-11-13T06:21:11.819Z,20.98
2023-11-13T06:23:13.708Z,20.91
2023-11-13T06:25:15.095Z,20.87
2023-11-13T06:27:16.537Z,20.83
2023-11-13T06:29:17.870Z,20.80
2023-11-13T06:31:21.273Z,20.78
2023-11-13T06:33:24.142Z,20.74
2023-11-13T06:35:25.577Z,20.72
2023-11-13T06:37:27.000Z,20.71
2023-11-13T06:39:28.353Z,20.71
2023-11-13T06:41:29.872Z,20.77
2023-11-13T06:43:31.351Z,20.82
2023-11-13T06:45:32.755Z,20.85
2023-11-13T06:47:34.534Z,20.94
2023-11-13T06:49:39.667Z,21.00
2023-11-13T06:51:41.050Z,21.08
2023-11-13T06:53:42.454Z,21.15
2023-11-13T06:55:43.778Z,21.21
2023-11-13T06:57:45.128Z,21.29
2023-11-13T06:59:46.467Z,21.33
2023-11-13T07:01:49.272Z,21.40
2023-11-13T07:03:50.735Z,21.42
2023-11-13T07:05:52.092Z,21.47
2023-11-13T07:07:56.378Z,21.50
2023-11-13T07:09:58.979Z,21.51
2023-11-13T07:12:02.961Z,21.54
2023-11-13T07:14:04.838Z,21.57
2023-11-13T07:16:06.264Z,21.57
2023-11-13T07:18:07.757Z,21.58
2023-11-13T07:20:10.678Z,21.59
2023-11-13T07:22:12.139Z,21.55
2023-11-13T07:24:14.504Z,21.51
2023-11-13T07:26:15.917Z,21.50
2023-11-13T07:28:18.240Z,21.46
2023-11-13T07:30:19.644Z,21.41
2023-11-13T07:32:21.101Z,21.38
2023-11-13T07:34:22.517Z,21.34
2023-11-13T07:36:23.911Z,21.28
2023-11-13T07:38:25.649Z,21.22
2023-11-13T07:40:27.420Z,21.19
2023-11-13T07:42:30.593Z,21.15
2023-11-13T07:44:32.013Z,21.10
2023-11-13T07:46:34.909Z,21.06
2023-11-13T07:48:36.290Z,21.01
2023-11-13T07:50:56.594Z,20.97
2023-11-13T07:53:00.033Z,20.90
2023-11-13T07:55:02.717Z,20.87
2023-11-13T07:57:05.281Z,20.82
2023-11-13T07:59:08.580Z,20.79
2023-11-13T08:01:10.435Z,20.75
2023-11-13T08:03:13.803Z,20.71
2023-11-13T08:05:18.513Z,20.68
2023-11-13T08:07:25.716Z,20.64
2023-11-13T08:09:27.937Z,20.64
2023-11-13T08:11:30.006Z,20.64
2023-11-13T08:13:31.369Z,20.66
2023-11-13T08:15:32.782Z,20.69
2023-11-13T08:17:34.412Z,20.73
2023-11-13T08:19:36.024Z,20.79
2023-11-13T08:21:37.491Z,20.81
2023-11-13T08:23:38.833Z,20.88
2023-11-13T08:25:41.023Z,20.95
2023-11-13T08:27:42.426Z,21.02
2023-11-13T08:29:43.864Z,21.09
2023-11-13T08:31:46.017Z,21.17
2023-11-13T08:33:48.543Z,21.24
2023-11-13T08:35:50.894Z,21.28
2023-11-13T08:37:52.405Z,21.35
2023-11-13T08:39:54.030Z,21.39
2023-11-13T08:41:57.548Z,21.44
2023-11-13T08:43:58.938Z,21.46
2023-11-13T08:46:01.368Z,21.50
2023-11-13T08:48:03.186Z,21.51
2023-11-13T08:50:05.200Z,21.51
2023-11-13T08:52:06.556Z,21.52
2023-11-13T08:54:07.951Z,21.51
2023-11-13T08:56:09.459Z,21.50
2023-11-13T08:58:10.866Z,21.47
2023-11-13T09:00:25.802Z,21.47
2023-11-13T09:02:27.358Z,21.42
2023-11-13T09:04:29.182Z,21.39
2023-11-13T09:06:33.167Z,21.38
2023-11-13T09:08:36.999Z,21.33
2023-11-13T09:10:38.845Z,21.29
2023-11-13T09:12:40.330Z,21.27
2023-11-13T09:14:41.743Z,21.24
2023-11-13T09:16:43.167Z,21.22
2023-11-13T09:18:49.989Z,21.20
2023-11-13T09:20:51.532Z,21.19
2023-11-13T09:22:53.177Z,21.19
2023-11-13T09:24:54.516Z,21.17
2023-11-13T09:26:55.884Z,21.17
2023-11-13T09:28:57.286Z,21.18
2023-11-13T09:30:58.727Z,21.16
2023-11-13T09:33:02.875Z,21.17
2023-11-13T09:35:08.039Z,21.15
2023-11-13T09:37:09.661Z,21.15
2023-11-13T09:39:13.729Z,21.13
2023-11-13T09:41:16.538Z,21.13
2023-11-13T09:43:19.918Z,21.19
2023-11-13T09:45:21.596Z,21.23
2023-11-13T09:47:23.068Z,21.25
2023-11-13T09:49:24.409Z,21.24
2023-11-13T09:51:30.474Z,21.26
2023-11-13T09:53:32.554Z,21.27
2023-11-13T09:55:34.002Z,21.31
2023-11-13T09:57:36.416Z,21.35
2023-11-13T09:59:39.061Z,21.38
2023-11-13T10:01:40.802Z,21.38
2023-11-13T10:03:42.396Z,21.38
2023-11-13T10:05:43.879Z,21.38
2023-11-13T10:07:45.285Z,21.39
2023-11-13T10:09:47.246Z,21.39
2023-11-13T10:11:48.567Z,21.41
2023-11-13T10:13:50.048Z,21.40
2023-11-13T10:15:51.591Z,21.40
2023-11-13T10:17:53.097Z,21.44
2023-11-13T10:19:54.447Z,21.48
2023-11-13T10:21:56.551Z,21.49
2023-11-13T10:23:57.877Z,21.49
2023-11-13T10:26:00.283Z,21.47
2023-11-13T10:28:02.788Z,21.47
2023-11-13T10:30:04.970Z,21.48
2023-11-13T10:32:06.518Z,21.49
2023-11-13T10:34:10.780Z,21.46
2023-11-13T10:36:14.555Z,21.44
2023-11-13T10:38:16.028Z,21.39
2023-11-13T10:40:17.496Z,21.36
2023-11-13T10:42:25.711Z,21.32
2023-11-13T10:44:28.972Z,21.29
2023-11-13T10:46:30.722Z,21.24
2023-11-13T10:48:35.520Z,21.20
2023-11-13T10:50:36.888Z,21.17
2023-11-13T10:52:38.534Z,21.14
2023-11-13T10:54:39.925Z,21.12
2023-11-13T10:56:46.028Z,21.09
2023-11-13T10:58:49.545Z,21.09
2023-11-13T11:00:51.362Z,21.06
2023-11-13T11:02:54.679Z,21.03
2023-11-13T11:04:58.346Z,21.05
2023-11-13T11:06:59.826Z,21.05
2023-11-13T11:09:01.149Z,21.06
2023-11-13T11:11:04.870Z,21.05
2023-11-13T11:13:07.043Z,21.05
2023-11-13T11:15:08.399Z,21.06
2023-11-13T11:17:09.865Z,21.07
2023-11-13T11:19:11.936Z,21.09
2023-11-13T11:21:13.352Z,21.10
2023-11-13T11:23:16.003Z,21.12
2023-11-13T11:25:18.077Z,21.15
2023-11-13T11:27:19.433Z,21.18
2023-11-13T11:29:20.851Z,21.19
2023-11-13T11:31:22.212Z,21.21
2023-11-13T11:33:23.627Z,21.23
2023-11-13T11:35:25.358Z,21.25
2023-11-13T11:37:26.755Z,21.25
2023-11-13T11:39:28.284Z,21.28
2023-11-13T11:41:29.653Z,21.28
2023-11-13T11:43:31.181Z,21.29
2023-11-13T11:45:32.561Z,21.28
2023-11-13T11:47:37.508Z,21.28
2023-11-13T11:49:39.040Z,21.31
2023-11-13T11:51:40.415Z,21.31
2023-11-13T11:53:41.781Z,21.32
2023-11-13T11:55:43.874Z,21.27
2023-11-13T11:57:45.442Z,21.29
2023-11-13T11:59:46.845Z,21.28
2023-11-13T12:01:48.342Z,21.25
2023-11-13T12:03:49.901Z,21.25
2023-11-13T12:05:51.368Z,21.24
2023-11-13T12:07:53.430Z,21.22
2023-11-13T12:09:55.053Z,21.20
2023-11-13T12:11:56.530Z,21.17
2023-11-13T12:13:57.940Z,21.15
2023-11-13T12:16:01.078Z,21.13
2023-11-13T12:18:02.718Z,21.11
2023-11-13T12:20:17.711Z,21.08
2023-11-13T12:22:22.968Z,21.07
2023-11-13T12:24:24.365Z,21.06
2023-11-13T12:26:25.719Z,21.03
2023-11-13T12:28:27.108Z,20.99
2023-11-13T12:30:28.609Z,20.98
2023-11-13T12:32:30.564Z,20.96
2023-11-13T12:34:32.133Z,20.96
2023-11-13T12:36:33.875Z,20.94
2023-11-13T12:38:35.345Z,20.94
2023-11-13T12:40:36.869Z,20.95
2023-11-13T12:42:38.281Z,20.94
2023-11-13T12:44:39.859Z,20.96
2023-11-13T12:46:41.291Z,20.98
2023-11-13T12:48:42.869Z,20.98
2023-11-13T12:50:45.057Z,20.98
2023-11-13T12:52:47.964Z,20.99
2023-11-13T12:54:56.762Z,21.00
2023-11-13T12:57:06.393Z,21.04
2023-11-13T12:59:11.791Z,21.04
2023-11-13T13:01:16.844Z,21.08
2023-11-13T13:03:23.312Z,21.08
2023-11-13T13:05:30.617Z,21.10
2023-11-13T13:07:33.661Z,21.14
2023-11-13T13:09:35.050Z,21.13
2023-11-13T13:11:39.969Z,21.15
2023-11-13T13:13:49.821Z,21.14
2023-11-13T13:15:56.226Z,21.17
2023-11-13T13:17:59.684Z,21.18
2023-11-13T13:20:03.415Z,21.19
2023-11-13T13:22:10.152Z,21.19
2023-11-13T13:24:11.868Z,21.18
2023-11-13T13:26:14.032Z,21.20
2023-11-13T13:28:15.641Z,21.18
2023-11-13T13:30:20.137Z,21.17
2023-11-13T13:32:21.596Z,21.17
2023-11-13T13:34:23.040Z,21.15
2023-11-13T13:36:25.598Z,21.15
2023-11-13T13:38:26.962Z,21.15
2023-11-13T13:40:29.447Z,21.14
2023-11-13T13:42:30.938Z,21.12
2023-11-13T13:44:32.397Z,21.09
2023-11-13T13:46:33.952Z,21.08
2023-11-13T13:48:36.942Z,21.06
2023-11-13T13:50:39.021Z,21.04
2023-11-13T13:52:44.125Z,21.03
2023-11-13T13:54:45.841Z,21.00
2023-11-13T13:56:48.372Z,20.96
2023-11-13T13:58:50.343Z,20.93
2023-11-13T14:00:53.724Z,20.90
2023-11-13T14:02:55.914Z,20.87
2023-11-13T14:04:57.404Z,20.87
2023-11-13T14:06:59.420Z,20.86
2023-11-13T14:09:02.779Z,20.86
2023-11-13T14:11:06.287Z,20.85
2023-11-13T14:13:07.769Z,20.84
2023-11-13T14:15:12.356Z,20.84
2023-11-13T14:17:13.800Z,20.86
2023-11-13T14:19:15.820Z,20.87
2023-11-13T14:21:17.956Z,20.86
2023-11-13T14:23:19.338Z,20.87
2023-11-13T14:25:24.798Z,20.88
2023-11-13T14:27:26.304Z,20.90
2023-11-13T14:29:28.748Z,20.91
2023-11-13T14:31:30.211Z,20.94
2023-11-13T14:33:32.010Z,20.95
2023-11-13T14:35:35.621Z,20.98
2023-11-13T14:37:39.180Z,20.98
2023-11-13T14:39:40.656Z,20.98
2023-11-13T14:41:42.808Z,21.00
2023-11-13T14:43:44.208Z,20.99
2023-11-13T14:45:46.118Z,21.02
2023-11-13T14:47:49.228Z,21.03
2023-11-13T14:49:50.893Z,21.05
2023-11-13T14:51:52.303Z,21.05
2023-11-13T14:53:53.784Z,21.04
2023-11-13T14:55:55.769Z,21.06
2023-11-13T14:57:57.194Z,21.07
2023-11-13T14:59:58.613Z,21.08
2023-11-13T15:01:59.939Z,21.07
2023-11-13T15:04:01.422Z,21.09
2023-11-13T15:06:05.098Z,21.09
2023-11-13T15:08:07.893Z,21.07
2023-11-13T15:10:11.426Z,21.06
2023-11-13T15:12:12.872Z,21.06
2023-11-13T15:14:16.811Z,21.10
2023-11-13T15:16:18.716Z,21.09
2023-11-13T15:18:20.558Z,21.08
2023-11-13T15:20:22.287Z,21.06
2023-11-13T15:22:23.690Z,21.04
2023-11-13T15:24:26.780Z,21.05
2023-11-13T15:26:28.242Z,21.05
2023-11-13T15:28:29.602Z,21.04
2023-11-13T15:30:31.081Z,21.03
2023-11-13T15:32:32.516Z,21.03
2023-11-13T15:34:34.058Z,20.99
2023-11-13T15:36:35.590Z,20.99
2023-11-13T15:38:36.928Z,21.00
2023-11-13T15:40:38.351Z,20.98
2023-11-13T15:42:39.777Z,20.96
2023-11-13T15:44:41.508Z,20.96
2023-11-13T15:46:43.718Z,20.93
2023-11-13T15:48:45.156Z,20.94
2023-11-13T15:50:46.530Z,20.93
2023-11-13T15:52:49.137Z,20.92
2023-11-13T15:54:50.613Z,20.92
2023-11-13T15:56:51.965Z,20.90
2023-11-13T15:58:54.765Z,20.89
2023-11-13T16:00:56.246Z,20.89
2023-11-13T16:02:58.805Z,20.88
2023-11-13T16:05:00.553Z,20.89
2023-11-13T16:07:06.742Z,20.89
2023-11-13T16:09:13.582Z,20.89
2023-11-13T16:11:15.370Z,20.89
2023-11-13T16:13:20.160Z,20.88
2023-11-13T16:15:24.083Z,20.88
2023-11-13T16:17:25.809Z,20.87
2023-11-13T16:19:27.294Z,20.85
2023-11-13T16:21:28.723Z,20.82
2023-11-13T16:23:30.068Z,20.78
2023-11-13T16:25:32.378Z,20.74
2023-11-13T16:27:33.805Z,20.68
2023-11-13T16:29:35.189Z,20.65
2023-11-13T16:31:36.694Z,20.60
2023-11-13T16:33:38.375Z,20.55
2023-11-13T16:35:39.807Z,20.52
2023-11-13T16:37:41.602Z,20.48
2023-11-13T16:39:42.956Z,20.47
2023-11-13T16:41:44.303Z,20.52
2023-11-13T16:43:45.670Z,20.57
2023-11-13T16:45:47.011Z,20.62
2023-11-13T16:47:51.795Z,20.65
2023-11-13T16:49:53.186Z,20.69
2023-11-13T16:51:54.673Z,20.76
2023-11-13T16:53:56.015Z,20.81
2023-11-13T16:55:59.669Z,20.84
2023-11-13T16:58:02.459Z,20.95
2023-11-13T17:00:10.255Z,21.12
2023-11-13T17:02:12.183Z,21.43
2023-11-13T17:04:13.607Z,21.65
2023-11-13T17:06:15.043Z,21.77
2023-11-13T17:08:16.441Z,21.75
2023-11-13T17:10:18.197Z,21.58
2023-11-13T17:12:19.620Z,21.48
2023-11-13T17:14:21.080Z,21.70
2023-11-13T17:16:22.599Z,22.12
2023-11-13T17:18:24.164Z,22.33
2023-11-13T17:20:25.658Z,22.46
2023-11-13T17:22:27.184Z,22.32
2023-11-13T17:24:28.573Z,22.42
2023-11-13T17:26:30.001Z,22.48
2023-11-13T17:28:31.406Z,22.60
2023-11-13T17:30:33.999Z,22.75
2023-11-13T17:32:35.454Z,22.68
2023-11-13T17:36:38.203Z,22.49
2023-11-13T17:38:41.902Z,22.62
2023-11-13T17:42:45.024Z,22.64
2023-11-13T17:44:48.625Z,22.48
2023-11-13T17:46:50.076Z,22.39
2023-11-13T17:48:51.642Z,22.33
2023-11-13T17:50:53.458Z,22.17
2023-11-13T17:52:54.912Z,21.84
2023-11-13T17:54:56.623Z,21.92
2023-11-13T17:56:59.050Z,21.96
2023-11-13T17:59:00.813Z,22.05
2023-11-13T18:01:02.246Z,22.06
2023-11-13T18:03:03.783Z,22.06
2023-11-13T18:05:05.223Z,22.04
2023-11-13T18:07:07.741Z,22.01
2023-11-13T18:09:09.082Z,22.07
2023-11-13T18:11:11.728Z,22.01
2023-11-13T18:13:13.086Z,21.98
2023-11-13T18:15:14.446Z,21.99
2023-11-13T18:17:15.874Z,21.99
2023-11-13T18:19:17.289Z,21.87
2023-11-13T18:21:18.634Z,21.60
2023-11-13T18:23:20.757Z,21.76
2023-11-13T18:25:22.092Z,21.84
2023-11-13T18:27:23.427Z,21.90
2023-11-13T18:29:24.774Z,21.94
2023-11-13T18:31:26.277Z,21.98
2023-11-13T18:33:30.523Z,22.02
2023-11-13T18:35:32.354Z,22.37
2023-11-13T18:37:36.201Z,22.29
2023-11-13T18:39:39.101Z,22.32
2023-11-13T18:41:40.695Z,22.14
2023-11-13T18:43:42.083Z,22.17
2023-11-13T18:45:46.386Z,22.34
2023-11-13T18:47:49.373Z,22.49
2023-11-13T18:49:51.108Z,22.62
2023-11-13T18:51:52.625Z,22.75
2023-11-13T18:53:54.182Z,22.89
2023-11-13T18:55:55.634Z,22.91
2023-11-13T18:57:57.007Z,22.92
2023-11-13T18:59:58.367Z,22.91
2023-11-13T19:01:59.802Z,22.91
2023-11-13T19:04:01.480Z,23.00
2023-11-13T19:06:06.930Z,23.06
2023-11-13T19:08:08.331Z,22.85
2023-11-13T19:10:09.715Z,22.60
2023-11-13T19:12:14.029Z,21.76
2023-11-13T19:14:17.361Z,23.09
2023-11-13T19:16:19.244Z,22.97
2023-11-13T19:18:22.241Z,22.90
2023-11-13T19:20:28.110Z,22.87
2023-11-13T19:22:29.479Z,23.05
2023-11-13T19:24:31.385Z,23.02
2023-11-13T19:26:35.632Z,22.94
2023-11-13T19:28:37.101Z,22.90
2023-11-13T19:30:39.571Z,22.90
2023-11-13T19:32:46.596Z,22.88
2023-11-13T19:34:53.229Z,22.88
2023-11-13T19:36:54.573Z,22.92
2023-11-13T19:38:56.313Z,22.83
2023-11-13T19:40:57.741Z,22.54
2023-11-13T19:43:00.037Z,22.35
2023-11-13T19:45:01.824Z,22.21
2023-11-13T19:47:03.348Z,22.12
2023-11-13T19:49:09.001Z,22.07
2023-11-13T19:51:10.691Z,22.03
2023-11-13T19:53:13.898Z,22.01
2023-11-13T19:55:16.385Z,21.99
2023-11-13T19:57:17.789Z,21.97
2023-11-13T19:59:19.173Z,21.90
2023-11-13T20:01:20.614Z,21.58
2023-11-13T20:03:23.048Z,23.14
2023-11-13T20:05:24.810Z,23.04
2023-11-13T20:07:32.266Z,22.81
2023-11-13T20:09:33.740Z,22.72
2023-11-13T20:11:35.064Z,22.75
2023-11-13T20:13:36.462Z,22.80
2023-11-13T20:15:37.807Z,22.88
2023-11-13T20:17:42.529Z,23.47
2023-11-13T20:19:44.003Z,23.51
2023-11-13T20:21:45.349Z,23.13
2023-11-13T20:23:46.714Z,23.00
2023-11-13T20:25:48.081Z,23.19
2023-11-13T20:27:49.486Z,23.23
2023-11-13T20:30:00.554Z,23.19
2023-11-13T20:32:06.069Z,23.27
2023-11-13T20:34:11.886Z,23.14
2023-11-13T20:36:13.507Z,22.97
2023-11-13T20:38:14.921Z,22.74
2023-11-13T20:40:16.294Z,22.80
2023-11-13T20:42:17.650Z,22.86
2023-11-13T20:44:18.981Z,22.94
2023-11-13T20:46:20.415Z,22.94
2023-11-13T20:48:22.418Z,22.99
2023-11-13T20:50:23.905Z,23.22
2023-11-13T20:52:25.322Z,23.17
2023-11-13T20:54:27.467Z,23.17
2023-11-13T20:56:28.967Z,22.99
2023-11-13T20:58:30.504Z,23.33
2023-11-13T21:00:32.328Z,23.30
2023-11-13T21:02:33.734Z,23.51
2023-11-13T21:04:35.175Z,23.21
2023-11-13T21:06:37.806Z,23.44
2023-11-13T21:08:39.181Z,23.71
2023-11-13T21:10:41.289Z,23.66
2023-11-13T21:12:44.536Z,23.64
2023-11-13T21:14:45.982Z,23.03
2023-11-13T21:16:47.403Z,22.69
2023-11-13T21:18:48.846Z,22.53
2023-11-13T21:20:50.317Z,22.61
2023-11-13T21:22:51.931Z,22.99
2023-11-13T21:24:53.348Z,23.06
2023-11-13T21:26:54.781Z,23.12
2023-11-13T21:28:59.122Z,23.13
2023-11-13T21:31:01.600Z,23.15
2023-11-13T21:33:02.981Z,23.19
2023-11-13T21:35:05.118Z,23.21
2023-11-13T21:37:09.530Z,23.22
2023-11-13T21:39:12.245Z,23.24
2023-11-13T21:41:13.807Z,23.27
2023-11-13T21:43:15.273Z,23.29
2023-11-13T21:45:18.366Z,23.32
2023-11-13T21:47:20.293Z,23.30
2023-11-13T21:49:21.759Z,23.81
2023-11-13T21:51:23.131Z,23.27
2023-11-13T21:53:26.381Z,21.04
2023-11-13T21:55:28.397Z,20.41
2023-11-13T21:57:29.766Z,21.00
2023-11-13T21:59:31.102Z,21.51
2023-11-13T22:01:32.576Z,21.74
2023-11-13T22:03:34.052Z,21.89
2023-11-13T22:05:35.517Z,21.97
2023-11-13T22:07:36.921Z,22.02
2023-11-13T22:09:38.668Z,22.01
2023-11-13T22:11:40.311Z,22.01
2023-11-13T22:13:42.527Z,22.03
2023-11-13T22:15:43.938Z,22.07
2023-11-13T22:17:47.960Z,22.08
2023-11-13T22:19:49.826Z,22.11
2023-11-13T22:21:53.997Z,22.18
2023-11-13T22:23:55.346Z,22.22
2023-11-13T22:25:56.716Z,22.26
2023-11-13T22:27:58.118Z,22.28
2023-11-13T22:29:59.507Z,22.25
2023-11-13T22:32:00.885Z,22.24
2023-11-13T22:34:02.431Z,22.26
2023-11-13T22:36:03.761Z,22.24
2023-11-13T22:38:05.734Z,22.22
2023-11-13T22:40:07.101Z,22.21
2023-11-13T22:42:08.466Z,22.18
2023-11-13T22:44:09.806Z,22.17
2023-11-13T22:46:11.187Z,22.13
2023-11-13T22:48:12.632Z,22.10
2023-11-13T22:50:14.029Z,22.08
2023-11-13T22:52:15.372Z,22.05
2023-11-13T22:54:16.732Z,22.02
2023-11-13T22:56:18.076Z,21.98
2023-11-13T22:58:19.409Z,21.96
2023-11-13T23:00:26.636Z,21.99
2023-11-13T23:02:30.418Z,22.00
2023-11-13T23:04:31.852Z,21.90
2023-11-13T23:06:34.285Z,21.86
2023-11-13T23:08:35.657Z,21.86
2023-11-13T23:10:37.087Z,21.86
2023-11-13T23:12:38.603Z,21.85
2023-11-13T23:14:39.995Z,21.82
2023-11-13T23:16:41.405Z,21.81
2023-11-13T23:18:42.771Z,21.81
2023-11-13T23:20:44.156Z,21.78
2023-11-13T23:22:45.561Z,21.77
2023-11-13T23:24:46.947Z,21.77
2023-11-13T23:26:48.290Z,21.77
2023-11-13T23:28:49.790Z,21.75
2023-11-13T23:30:54.072Z,21.74
2023-11-13T23:32:55.544Z,21.75
2023-11-13T23:34:57.012Z,21.74
2023-11-13T23:36:58.386Z,21.74
2023-11-13T23:38:59.708Z,21.76
2023-11-13T23:41:02.685Z,21.76
2023-11-13T23:43:04.143Z,21.75
2023-11-13T23:45:05.986Z,21.75
2023-11-13T23:47:09.265Z,21.77
2023-11-13T23:49:11.116Z,21.76
2023-11-13T23:51:12.517Z,21.76
2023-11-13T23:53:13.900Z,21.78
2023-11-13T23:55:15.287Z,20.86
2023-11-13T23:57:16.652Z,21.81
2023-11-13T23:59:18.056Z,21.88
